首页
METAR-TAF:

METAR-TAF

机场 :

拉塞瓦, 洪都拉斯

纬度: 15-44N, 经度: 086-52W, 海拔: 3米

METAR: 丢失

时间: 01:06 (07:06 UTC)

预报

该预报发布于3小时和46分钟前的03:20 UTC
预报有效从05日的 06点(UTC)到 06日的 06点(UTC)
风速4节,风向西南
能见度10公里或以上
散云层高于2800英尺
成为
从 05日的 15点(UTC)到 05日的 17点(UTC)
风速8节,风向北转西北
短暂存在
从 05日的 20点(UTC)到 06日的 02点(UTC)
能見度: 8000
散云层高于2800英尺, 塔状积云.
散云层高于8000英尺
附近有阵雨
成为
从 06日的 02点(UTC)到 06日的 04点(UTC)
风速4节,风向
能见度10公里或以上
少量云层高于2800英尺
散云层高于8000英尺

TAF: MHLC 050320Z 0506/0606 23004KT 9999 SCT028 TX32/0520Z TN23/0512Z BECMG 0515/0517 34008KT TEMPO 0520/0602 8000 VCSH SCT028TCU SCT080 BECMG 0602/0604 08004KT 9999 NSW FEW028 SCT080

超过4000个机场的气象观测和天气预报(METAR&TAF报告)。

可查询的气象台以黄色和红色小点在地图上表示。

将鼠标移到小点上方,可查看气象台名称。

然后点击查看天气观测和预报。

如需切换地图:点击带黑十字的绿色按钮放大地图;点击带横线的绿色按钮缩小地图;或者点击绿色箭头查看邻近地区的地图。


METAR-TAF: